sensor_id;sensor_type;location;lat;lon;timestamp;temperature;humidity
51011;DHT22;37038;50.182;8.624;2022-09-06T00:02:43;18.50;99.90
51011;DHT22;37038;50.182;8.624;2022-09-06T00:05:31;18.50;99.90
51011;DHT22;37038;50.182;8.624;2022-09-06T00:08:19;18.50;99.90
51011;DHT22;37038;50.182;8.624;2022-09-06T00:11:07;18.50;99.90
51011;DHT22;37038;50.182;8.624;2022-09-06T00:13:55;18.50;99.90
51011;DHT22;37038;50.182;8.624;2022-09-06T00:16:43;18.40;99.90
51011;DHT22;37038;50.182;8.624;2022-09-06T00:19:31;18.40;99.90
51011;DHT22;37038;50.182;8.624;2022-09-06T00:22:19;18.40;99.90
51011;DHT22;37038;50.182;8.624;2022-09-06T00:25:07;18.40;99.90
51011;DHT22;37038;50.182;8.624;2022-09-06T00:27:56;18.40;99.90
51011;DHT22;37038;50.182;8.624;2022-09-06T00:30:45;18.40;99.90
51011;DHT22;37038;50.182;8.624;2022-09-06T00:33:33;18.40;99.90
51011;DHT22;37038;50.182;8.624;2022-09-06T00:36:21;18.40;99.90
51011;DHT22;37038;50.182;8.624;2022-09-06T00:39:09;18.40;99.90
51011;DHT22;37038;50.182;8.624;2022-09-06T00:41:57;18.40;99.90
51011;DHT22;37038;50.182;8.624;2022-09-06T00:44:45;18.30;99.90
51011;DHT22;37038;50.182;8.624;2022-09-06T00:47:34;18.30;99.90
51011;DHT22;37038;50.182;8.624;2022-09-06T00:50:23;18.30;99.90
51011;DHT22;37038;50.182;8.624;2022-09-06T00:53:11;18.40;99.90
51011;DHT22;37038;50.182;8.624;2022-09-06T00:55:59;18.40;99.90
51011;DHT22;37038;50.182;8.624;2022-09-06T00:58:48;18.40;99.90
51011;DHT22;37038;50.182;8.624;2022-09-06T01:01:36;18.30;99.90
51011;DHT22;37038;50.182;8.624;2022-09-06T01:04:25;18.20;99.90
51011;DHT22;37038;50.182;8.624;2022-09-06T01:12:03;18.20;99.90
51011;DHT22;37038;50.182;8.624;2022-09-06T01:18:27;18.30;99.90
51011;DHT22;37038;50.182;8.624;2022-09-06T01:25:23;18.30;99.90
51011;DHT22;37038;50.182;8.624;2022-09-06T01:28:39;18.30;99.90
51011;DHT22;37038;50.182;8.624;2022-09-06T01:31:33;18.30;99.90
51011;DHT22;37038;50.182;8.624;2022-09-06T01:34:33;18.30;99.90
51011;DHT22;37038;50.182;8.624;2022-09-06T01:37:38;18.30;99.90
51011;DHT22;37038;50.182;8.624;2022-09-06T01:40:26;18.20;99.90
51011;DHT22;37038;50.182;8.624;2022-09-06T01:43:23;18.20;99.90
51011;DHT22;37038;50.182;8.624;2022-09-06T01:58:46;18.20;99.90
51011;DHT22;37038;50.182;8.624;2022-09-06T02:01:48;18.10;99.90
51011;DHT22;37038;50.182;8.624;2022-09-06T02:04:48;18.10;99.90
51011;DHT22;37038;50.182;8.624;2022-09-06T02:07:39;18.10;99.90
51011;DHT22;37038;50.182;8.624;2022-09-06T02:10:35;18.10;99.90
51011;DHT22;37038;50.182;8.624;2022-09-06T02:13:31;18.20;99.90
51011;DHT22;37038;50.182;8.624;2022-09-06T02:16:24;18.50;99.90
51011;DHT22;37038;50.182;8.624;2022-09-06T02:19:33;18.90;99.90
51011;DHT22;37038;50.182;8.624;2022-09-06T02:22:27;19.00;99.90
51011;DHT22;37038;50.182;8.624;2022-09-06T02:25:44;19.10;99.90
51011;DHT22;37038;50.182;8.624;2022-09-06T02:28:37;19.20;99.90
51011;DHT22;37038;50.182;8.624;2022-09-06T02:31:29;19.20;99.90
51011;DHT22;37038;50.182;8.624;2022-09-06T02:34:19;19.20;99.90
51011;DHT22;37038;50.182;8.624;2022-09-06T02:37:09;19.20;99.90
51011;DHT22;37038;50.182;8.624;2022-09-06T02:39:57;19.30;99.90
51011;DHT22;37038;50.182;8.624;2022-09-06T02:42:46;19.40;99.90
51011;DHT22;37038;50.182;8.624;2022-09-06T02:45:34;19.60;99.90
51011;DHT22;37038;50.182;8.624;2022-09-06T02:48:22;19.70;99.90
51011;DHT22;37038;50.182;8.624;2022-09-06T02:51:10;19.80;99.90
51011;DHT22;37038;50.182;8.624;2022-09-06T02:53:57;19.90;99.90
51011;DHT22;37038;50.182;8.624;2022-09-06T02:56:45;20.10;99.90
51011;DHT22;37038;50.182;8.624;2022-09-06T02:59:38;20.10;99.90
51011;DHT22;37038;50.182;8.624;2022-09-06T03:02:26;20.10;99.90
51011;DHT22;37038;50.182;8.624;2022-09-06T03:05:14;20.10;99.90
51011;DHT22;37038;50.182;8.624;2022-09-06T03:08:02;20.10;99.90
51011;DHT22;37038;50.182;8.624;2022-09-06T03:10:54;20.00;99.90
51011;DHT22;37038;50.182;8.624;2022-09-06T03:13:42;20.10;99.90
51011;DHT22;37038;50.182;8.624;2022-09-06T03:16:30;20.20;99.90
51011;DHT22;37038;50.182;8.624;2022-09-06T03:19:18;20.30;99.90
51011;DHT22;37038;50.182;8.624;2022-09-06T03:22:06;20.30;99.90
51011;DHT22;37038;50.182;8.624;2022-09-06T03:24:54;20.30;99.90
51011;DHT22;37038;50.182;8.624;2022-09-06T03:27:42;20.30;99.90
51011;DHT22;37038;50.182;8.624;2022-09-06T03:30:30;20.20;99.90
51011;DHT22;37038;50.182;8.624;2022-09-06T03:33:19;19.90;99.90
51011;DHT22;37038;50.182;8.624;2022-09-06T03:36:07;19.60;99.90
51011;DHT22;37038;50.182;8.624;2022-09-06T03:38:55;19.60;99.90
51011;DHT22;37038;50.182;8.624;2022-09-06T03:41:42;19.50;99.90
51011;DHT22;37038;50.182;8.624;2022-09-06T03:44:30;19.30;99.90
51011;DHT22;37038;50.182;8.624;2022-09-06T03:47:19;19.20;99.90
51011;DHT22;37038;50.182;8.624;2022-09-06T03:50:07;19.20;99.90
51011;DHT22;37038;50.182;8.624;2022-09-06T03:52:55;19.20;99.90
51011;DHT22;37038;50.182;8.624;2022-09-06T03:55:44;19.20;99.90
51011;DHT22;37038;50.182;8.624;2022-09-06T03:58:33;19.20;99.90
51011;DHT22;37038;50.182;8.624;2022-09-06T04:01:20;19.00;99.90
51011;DHT22;37038;50.182;8.624;2022-09-06T04:04:09;19.00;99.90
51011;DHT22;37038;50.182;8.624;2022-09-06T04:06:56;18.90;99.90
51011;DHT22;37038;50.182;8.624;2022-09-06T04:09:44;18.70;99.90
51011;DHT22;37038;50.182;8.624;2022-09-06T04:12:32;18.70;99.90
51011;DHT22;37038;50.182;8.624;2022-09-06T04:15:21;18.70;99.90
51011;DHT22;37038;50.182;8.624;2022-09-06T04:18:08;18.70;99.90
51011;DHT22;37038;50.182;8.624;2022-09-06T04:20:59;18.70;99.90
51011;DHT22;37038;50.182;8.624;2022-09-06T04:23:47;18.70;99.90
51011;DHT22;37038;50.182;8.624;2022-09-06T04:26:35;18.60;99.90
51011;DHT22;37038;50.182;8.624;2022-09-06T04:29:22;18.60;99.90
51011;DHT22;37038;50.182;8.624;2022-09-06T04:32:11;18.60;99.90
51011;DHT22;37038;50.182;8.624;2022-09-06T04:34:58;18.70;99.90
51011;DHT22;37038;50.182;8.624;2022-09-06T04:37:46;18.60;99.90
51011;DHT22;37038;50.182;8.624;2022-09-06T04:40:34;18.60;99.90
51011;DHT22;37038;50.182;8.624;2022-09-06T04:43:22;18.50;99.90
51011;DHT22;37038;50.182;8.624;2022-09-06T04:46:19;18.50;99.90
51011;DHT22;37038;50.182;8.624;2022-09-06T04:49:16;18.40;99.90
51011;DHT22;37038;50.182;8.624;2022-09-06T04:52:04;18.30;99.90
51011;DHT22;37038;50.182;8.624;2022-09-06T04:54:51;18.20;99.90
51011;DHT22;37038;50.182;8.624;2022-09-06T04:57:39;18.10;99.90
51011;DHT22;37038;50.182;8.624;2022-09-06T05:00:33;18.10;99.90
51011;DHT22;37038;50.182;8.624;2022-09-06T05:03:22;18.00;99.90
51011;DHT22;37038;50.182;8.624;2022-09-06T05:06:12;17.90;99.90
51011;DHT22;37038;50.182;8.624;2022-09-06T05:09:04;17.90;99.90
51011;DHT22;37038;50.182;8.624;2022-09-06T05:11:52;17.90;99.90
51011;DHT22;37038;50.182;8.624;2022-09-06T05:14:40;17.80;99.90
51011;DHT22;37038;50.182;8.624;2022-09-06T05:17:27;17.80;99.90
51011;DHT22;37038;50.182;8.624;2022-09-06T05:20:16;17.70;99.90
51011;DHT22;37038;50.182;8.624;2022-09-06T05:23:04;17.70;99.90
51011;DHT22;37038;50.182;8.624;2022-09-06T05:25:52;17.60;99.90
51011;DHT22;37038;50.182;8.624;2022-09-06T05:28:40;17.50;99.90
51011;DHT22;37038;50.182;8.624;2022-09-06T05:31:29;17.50;99.90
51011;DHT22;37038;50.182;8.624;2022-09-06T05:34:18;17.50;99.90
51011;DHT22;37038;50.182;8.624;2022-09-06T05:37:06;17.50;99.90
51011;DHT22;37038;50.182;8.624;2022-09-06T05:39:54;17.50;99.90
51011;DHT22;37038;50.182;8.624;2022-09-06T05:42:42;17.60;99.90
51011;DHT22;37038;50.182;8.624;2022-09-06T05:45:29;17.80;99.90
51011;DHT22;37038;50.182;8.624;2022-09-06T05:48:17;18.00;99.90
51011;DHT22;37038;50.182;8.624;2022-09-06T05:51:10;18.20;99.90
51011;DHT22;37038;50.182;8.624;2022-09-06T05:53:59;18.30;99.90
51011;DHT22;37038;50.182;8.624;2022-09-06T05:56:47;18.50;99.90
51011;DHT22;37038;50.182;8.624;2022-09-06T05:59:34;18.70;99.90
51011;DHT22;37038;50.182;8.624;2022-09-06T06:02:22;18.80;99.90
51011;DHT22;37038;50.182;8.624;2022-09-06T06:05:10;19.10;99.90
51011;DHT22;37038;50.182;8.624;2022-09-06T06:07:58;19.30;99.90
51011;DHT22;37038;50.182;8.624;2022-09-06T06:10:46;19.50;99.90
51011;DHT22;37038;50.182;8.624;2022-09-06T06:13:34;19.80;99.90
51011;DHT22;37038;50.182;8.624;2022-09-06T06:16:25;20.00;99.90
51011;DHT22;37038;50.182;8.624;2022-09-06T06:19:13;20.20;99.90
51011;DHT22;37038;50.182;8.624;2022-09-06T06:22:01;20.40;99.90
51011;DHT22;37038;50.182;8.624;2022-09-06T06:24:49;20.60;99.90
51011;DHT22;37038;50.182;8.624;2022-09-06T06:27:37;20.80;99.90
51011;DHT22;37038;50.182;8.624;2022-09-06T06:30:25;21.00;99.90
51011;DHT22;37038;50.182;8.624;2022-09-06T06:33:12;21.20;99.90
51011;DHT22;37038;50.182;8.624;2022-09-06T06:39:02;21.60;99.90
51011;DHT22;37038;50.182;8.624;2022-09-06T06:41:52;21.70;99.90
51011;DHT22;37038;50.182;8.624;2022-09-06T06:44:39;21.80;99.90
51011;DHT22;37038;50.182;8.624;2022-09-06T06:47:28;21.80;99.90
51011;DHT22;37038;50.182;8.624;2022-09-06T06:50:16;21.90;99.90
51011;DHT22;37038;50.182;8.624;2022-09-06T06:53:04;22.10;99.90
51011;DHT22;37038;50.182;8.624;2022-09-06T06:55:52;22.30;99.90
51011;DHT22;37038;50.182;8.624;2022-09-06T06:58:40;22.40;99.90
51011;DHT22;37038;50.182;8.624;2022-09-06T07:01:31;22.60;99.90
51011;DHT22;37038;50.182;8.624;2022-09-06T07:04:20;22.70;99.90
51011;DHT22;37038;50.182;8.624;2022-09-06T07:07:08;22.80;99.90
51011;DHT22;37038;50.182;8.624;2022-09-06T07:10:16;23.00;99.90
51011;DHT22;37038;50.182;8.624;2022-09-06T07:13:19;23.20;99.90
51011;DHT22;37038;50.182;8.624;2022-09-06T07:16:11;23.30;99.90
51011;DHT22;37038;50.182;8.624;2022-09-06T07:19:01;23.40;99.90
51011;DHT22;37038;50.182;8.624;2022-09-06T07:21:50;23.40;99.90
51011;DHT22;37038;50.182;8.624;2022-09-06T07:24:38;23.40;99.90
51011;DHT22;37038;50.182;8.624;2022-09-06T07:27:25;23.50;99.90
51011;DHT22;37038;50.182;8.624;2022-09-06T07:30:34;23.50;99.90
51011;DHT22;37038;50.182;8.624;2022-09-06T07:33:24;23.50;99.90
51011;DHT22;37038;50.182;8.624;2022-09-06T07:36:11;23.70;99.90
51011;DHT22;37038;50.182;8.624;2022-09-06T07:38:59;23.90;99.90
51011;DHT22;37038;50.182;8.624;2022-09-06T07:41:47;24.10;99.90
51011;DHT22;37038;50.182;8.624;2022-09-06T07:44:35;24.10;99.90
51011;DHT22;37038;50.182;8.624;2022-09-06T07:47:23;24.10;99.90
51011;DHT22;37038;50.182;8.624;2022-09-06T07:50:31;24.20;99.90
51011;DHT22;37038;50.182;8.624;2022-09-06T07:53:37;24.20;99.90
51011;DHT22;37038;50.182;8.624;2022-09-06T07:56:26;24.30;99.90
51011;DHT22;37038;50.182;8.624;2022-09-06T07:59:13;24.40;99.90
51011;DHT22;37038;50.182;8.624;2022-09-06T08:02:04;24.60;99.90
51011;DHT22;37038;50.182;8.624;2022-09-06T08:04:52;24.80;99.90
51011;DHT22;37038;50.182;8.624;2022-09-06T08:07:40;25.10;99.90
51011;DHT22;37038;50.182;8.624;2022-09-06T08:10:28;25.40;99.90
51011;DHT22;37038;50.182;8.624;2022-09-06T08:13:18;25.70;99.90
51011;DHT22;37038;50.182;8.624;2022-09-06T08:16:09;26.00;99.90
51011;DHT22;37038;50.182;8.624;2022-09-06T08:19:00;26.10;99.90
51011;DHT22;37038;50.182;8.624;2022-09-06T08:21:49;26.40;99.90
51011;DHT22;37038;50.182;8.624;2022-09-06T08:24:42;26.60;99.90
51011;DHT22;37038;50.182;8.624;2022-09-06T08:27:30;26.40;99.90
51011;DHT22;37038;50.182;8.624;2022-09-06T08:30:21;26.50;99.90
51011;DHT22;37038;50.182;8.624;2022-09-06T08:33:11;26.70;99.90
51011;DHT22;37038;50.182;8.624;2022-09-06T08:36:02;26.80;99.90
51011;DHT22;37038;50.182;8.624;2022-09-06T08:38:51;27.00;99.90
51011;DHT22;37038;50.182;8.624;2022-09-06T08:41:44;27.30;99.90
51011;DHT22;37038;50.182;8.624;2022-09-06T08:44:49;27.60;99.90
51011;DHT22;37038;50.182;8.624;2022-09-06T08:47:44;28.00;99.90
51011;DHT22;37038;50.182;8.624;2022-09-06T08:50:33;28.30;99.90
51011;DHT22;37038;50.182;8.624;2022-09-06T08:53:25;28.20;99.90
51011;DHT22;37038;50.182;8.624;2022-09-06T08:56:24;28.10;99.90
51011;DHT22;37038;50.182;8.624;2022-09-06T08:59:16;28.30;99.90
51011;DHT22;37038;50.182;8.624;2022-09-06T09:02:15;28.30;99.90
51011;DHT22;37038;50.182;8.624;2022-09-06T09:05:19;28.70;99.90
51011;DHT22;37038;50.182;8.624;2022-09-06T09:08:24;29.00;99.90
51011;DHT22;37038;50.182;8.624;2022-09-06T09:11:18;29.30;99.90
51011;DHT22;37038;50.182;8.624;2022-09-06T09:14:15;29.80;99.90
51011;DHT22;37038;50.182;8.624;2022-09-06T09:17:16;29.90;99.90
51011;DHT22;37038;50.182;8.624;2022-09-06T09:20:13;30.20;99.90
51011;DHT22;37038;50.182;8.624;2022-09-06T09:23:11;30.50;99.90
51011;DHT22;37038;50.182;8.624;2022-09-06T09:26:08;30.60;99.90
51011;DHT22;37038;50.182;8.624;2022-09-06T09:29:10;30.90;99.90
51011;DHT22;37038;50.182;8.624;2022-09-06T09:32:01;31.00;99.90
51011;DHT22;37038;50.182;8.624;2022-09-06T09:35:15;31.00;98.70
51011;DHT22;37038;50.182;8.624;2022-09-06T09:38:24;31.10;98.90
51011;DHT22;37038;50.182;8.624;2022-09-06T09:41:30;31.30;98.50
51011;DHT22;37038;50.182;8.624;2022-09-06T09:44:22;31.30;97.20
51011;DHT22;37038;50.182;8.624;2022-09-06T09:47:27;31.00;97.80
51011;DHT22;37038;50.182;8.624;2022-09-06T09:50:30;30.80;98.20
51011;DHT22;37038;50.182;8.624;2022-09-06T09:53:27;30.50;98.70
51011;DHT22;37038;50.182;8.624;2022-09-06T09:56:26;30.30;98.40
51011;DHT22;37038;50.182;8.624;2022-09-06T09:59:25;29.90;99.30
51011;DHT22;37038;50.182;8.624;2022-09-06T10:02:37;29.30;99.50
51011;DHT22;37038;50.182;8.624;2022-09-06T10:05:28;28.90;99.90
51011;DHT22;37038;50.182;8.624;2022-09-06T10:08:24;28.60;99.90
51011;DHT22;37038;50.182;8.624;2022-09-06T10:11:39;28.30;99.90
51011;DHT22;37038;50.182;8.624;2022-09-06T10:14:44;28.10;99.90
51011;DHT22;37038;50.182;8.624;2022-09-06T10:17:35;27.80;99.90
51011;DHT22;37038;50.182;8.624;2022-09-06T10:20:54;27.70;99.90
51011;DHT22;37038;50.182;8.624;2022-09-06T10:24:18;27.60;99.90
51011;DHT22;37038;50.182;8.624;2022-09-06T10:27:17;27.50;99.90
51011;DHT22;37038;50.182;8.624;2022-09-06T10:30:10;27.50;99.90
51011;DHT22;37038;50.182;8.624;2022-09-06T10:33:22;27.40;99.90
51011;DHT22;37038;50.182;8.624;2022-09-06T10:36:18;27.40;99.90
51011;DHT22;37038;50.182;8.624;2022-09-06T10:39:37;27.50;99.90
51011;DHT22;37038;50.182;8.624;2022-09-06T10:42:44;27.50;99.90
51011;DHT22;37038;50.182;8.624;2022-09-06T10:48:34;27.60;99.90
51011;DHT22;37038;50.182;8.624;2022-09-06T10:54:25;27.60;99.90
51011;DHT22;37038;50.182;8.624;2022-09-06T10:57:20;27.50;99.90
51011;DHT22;37038;50.182;8.624;2022-09-06T11:00:38;27.50;99.90
51011;DHT22;37038;50.182;8.624;2022-09-06T11:03:40;27.40;99.90
51011;DHT22;37038;50.182;8.624;2022-09-06T11:06:52;27.30;99.90
51011;DHT22;37038;50.182;8.624;2022-09-06T11:09:49;27.30;99.90
51011;DHT22;37038;50.182;8.624;2022-09-06T11:12:48;27.30;99.90
51011;DHT22;37038;50.182;8.624;2022-09-06T11:28:25;27.30;99.90
51011;DHT22;37038;50.182;8.624;2022-09-06T11:31:28;27.30;99.90
51011;DHT22;37038;50.182;8.624;2022-09-06T11:34:38;27.20;99.90
51011;DHT22;37038;50.182;8.624;2022-09-06T11:37:32;27.30;99.90
51011;DHT22;37038;50.182;8.624;2022-09-06T11:40:25;27.40;99.90
51011;DHT22;37038;50.182;8.624;2022-09-06T11:49:30;27.50;99.90
51011;DHT22;37038;50.182;8.624;2022-09-06T11:52:49;27.40;99.90
51011;DHT22;37038;50.182;8.624;2022-09-06T11:58:55;27.40;99.90
51011;DHT22;37038;50.182;8.624;2022-09-06T12:02:40;27.40;99.90
51011;DHT22;37038;50.182;8.624;2022-09-06T12:05:30;27.50;99.90
51011;DHT22;37038;50.182;8.624;2022-09-06T12:08:22;27.60;99.90
51011;DHT22;37038;50.182;8.624;2022-09-06T12:11:41;27.50;99.90
51011;DHT22;37038;50.182;8.624;2022-09-06T12:14:41;27.40;99.90
51011;DHT22;37038;50.182;8.624;2022-09-06T12:17:45;27.60;99.90
51011;DHT22;37038;50.182;8.624;2022-09-06T12:23:40;27.60;99.90
51011;DHT22;37038;50.182;8.624;2022-09-06T12:32:47;27.70;99.90
51011;DHT22;37038;50.182;8.624;2022-09-06T12:35:36;27.80;99.90
51011;DHT22;37038;50.182;8.624;2022-09-06T12:38:57;27.80;99.90
51011;DHT22;37038;50.182;8.624;2022-09-06T12:41:54;27.80;99.90
51011;DHT22;37038;50.182;8.624;2022-09-06T12:44:53;27.70;99.90
51011;DHT22;37038;50.182;8.624;2022-09-06T12:47:41;27.60;99.90
51011;DHT22;37038;50.182;8.624;2022-09-06T12:50:29;27.60;99.90
51011;DHT22;37038;50.182;8.624;2022-09-06T12:53:20;27.70;99.90
51011;DHT22;37038;50.182;8.624;2022-09-06T12:56:11;27.70;99.90
51011;DHT22;37038;50.182;8.624;2022-09-06T12:59:23;27.80;99.90
51011;DHT22;37038;50.182;8.624;2022-09-06T13:02:16;27.80;99.90
51011;DHT22;37038;50.182;8.624;2022-09-06T13:05:11;27.80;99.90
51011;DHT22;37038;50.182;8.624;2022-09-06T13:08:01;27.90;99.70
51011;DHT22;37038;50.182;8.624;2022-09-06T13:10:49;27.90;99.90
51011;DHT22;37038;50.182;8.624;2022-09-06T13:13:49;27.90;99.50
51011;DHT22;37038;50.182;8.624;2022-09-06T13:16:47;27.80;99.80
51011;DHT22;37038;50.182;8.624;2022-09-06T13:19:38;27.90;98.90
51011;DHT22;37038;50.182;8.624;2022-09-06T13:22:42;28.00;99.20
51011;DHT22;37038;50.182;8.624;2022-09-06T13:25:47;28.10;98.90
51011;DHT22;37038;50.182;8.624;2022-09-06T13:28:36;28.10;99.90
51011;DHT22;37038;50.182;8.624;2022-09-06T13:31:24;28.10;98.30
51011;DHT22;37038;50.182;8.624;2022-09-06T13:34:39;28.10;98.60
51011;DHT22;37038;50.182;8.624;2022-09-06T13:37:35;28.10;97.70
51011;DHT22;37038;50.182;8.624;2022-09-06T13:40:42;28.10;98.30
51011;DHT22;37038;50.182;8.624;2022-09-06T13:44:18;28.20;99.70
51011;DHT22;37038;50.182;8.624;2022-09-06T13:47:08;28.20;98.60
51011;DHT22;37038;50.182;8.624;2022-09-06T13:49:56;28.20;97.60
51011;DHT22;37038;50.182;8.624;2022-09-06T13:52:43;28.30;96.90
51011;DHT22;37038;50.182;8.624;2022-09-06T13:55:34;28.40;97.90
51011;DHT22;37038;50.182;8.624;2022-09-06T13:58:25;28.40;97.90
51011;DHT22;37038;50.182;8.624;2022-09-06T14:01:16;28.50;96.30
51011;DHT22;37038;50.182;8.624;2022-09-06T14:04:09;28.50;96.10
51011;DHT22;37038;50.182;8.624;2022-09-06T14:06:58;28.50;95.60
51011;DHT22;37038;50.182;8.624;2022-09-06T14:09:46;28.60;96.00
51011;DHT22;37038;50.182;8.624;2022-09-06T14:12:34;28.60;96.70
51011;DHT22;37038;50.182;8.624;2022-09-06T14:15:22;28.60;96.90
51011;DHT22;37038;50.182;8.624;2022-09-06T14:18:10;28.50;96.20
51011;DHT22;37038;50.182;8.624;2022-09-06T14:21:01;28.60;96.20
51011;DHT22;37038;50.182;8.624;2022-09-06T14:23:50;28.70;95.20
51011;DHT22;37038;50.182;8.624;2022-09-06T14:26:39;28.70;95.10
51011;DHT22;37038;50.182;8.624;2022-09-06T14:29:26;28.70;95.30
51011;DHT22;37038;50.182;8.624;2022-09-06T14:32:14;28.80;95.70
51011;DHT22;37038;50.182;8.624;2022-09-06T14:35:11;28.90;95.00
51011;DHT22;37038;50.182;8.624;2022-09-06T14:37:58;29.00;96.00
51011;DHT22;37038;50.182;8.624;2022-09-06T14:40:46;29.10;95.20
51011;DHT22;37038;50.182;8.624;2022-09-06T14:48:01;29.00;94.60
51011;DHT22;37038;50.182;8.624;2022-09-06T14:55:17;29.10;94.20
51011;DHT22;37038;50.182;8.624;2022-09-06T14:58:05;29.10;94.20
51011;DHT22;37038;50.182;8.624;2022-09-06T15:00:52;29.00;94.30
51011;DHT22;37038;50.182;8.624;2022-09-06T15:03:45;29.00;93.80
51011;DHT22;37038;50.182;8.624;2022-09-06T15:06:36;29.10;95.10
51011;DHT22;37038;50.182;8.624;2022-09-06T15:09:26;29.00;94.00
51011;DHT22;37038;50.182;8.624;2022-09-06T15:12:20;28.90;93.90
51011;DHT22;37038;50.182;8.624;2022-09-06T15:15:10;28.80;94.70
51011;DHT22;37038;50.182;8.624;2022-09-06T15:18:06;28.70;94.40
51011;DHT22;37038;50.182;8.624;2022-09-06T15:20:57;28.70;95.20
51011;DHT22;37038;50.182;8.624;2022-09-06T15:23:48;28.60;95.00
51011;DHT22;37038;50.182;8.624;2022-09-06T15:26:44;28.50;94.20
51011;DHT22;37038;50.182;8.624;2022-09-06T15:29:33;28.50;94.30
51011;DHT22;37038;50.182;8.624;2022-09-06T15:32:23;28.40;94.20
51011;DHT22;37038;50.182;8.624;2022-09-06T15:35:13;28.30;95.00
51011;DHT22;37038;50.182;8.624;2022-09-06T15:38:02;28.30;93.90
51011;DHT22;37038;50.182;8.624;2022-09-06T15:40:51;28.20;93.60
51011;DHT22;37038;50.182;8.624;2022-09-06T15:43:41;28.10;93.50
51011;DHT22;37038;50.182;8.624;2022-09-06T15:46:45;28.10;93.60
51011;DHT22;37038;50.182;8.624;2022-09-06T15:49:48;28.10;93.90
51011;DHT22;37038;50.182;8.624;2022-09-06T15:52:38;28.00;94.30
51011;DHT22;37038;50.182;8.624;2022-09-06T15:55:26;27.90;94.30
51011;DHT22;37038;50.182;8.624;2022-09-06T15:58:33;27.90;94.40
51011;DHT22;37038;50.182;8.624;2022-09-06T16:01:22;27.80;95.30
51011;DHT22;37038;50.182;8.624;2022-09-06T16:04:13;27.80;94.90
51011;DHT22;37038;50.182;8.624;2022-09-06T16:07:03;27.70;95.00
51011;DHT22;37038;50.182;8.624;2022-09-06T16:09:52;27.60;95.60
51011;DHT22;37038;50.182;8.624;2022-09-06T16:12:39;27.50;95.50
51011;DHT22;37038;50.182;8.624;2022-09-06T16:15:36;27.40;95.50
51011;DHT22;37038;50.182;8.624;2022-09-06T16:18:27;27.30;95.80
51011;DHT22;37038;50.182;8.624;2022-09-06T16:21:22;27.20;95.70
51011;DHT22;37038;50.182;8.624;2022-09-06T16:24:12;27.10;96.10
51011;DHT22;37038;50.182;8.624;2022-09-06T16:27:00;27.00;96.20
51011;DHT22;37038;50.182;8.624;2022-09-06T16:29:49;26.90;96.50
51011;DHT22;37038;50.182;8.624;2022-09-06T16:32:39;26.80;96.90
51011;DHT22;37038;50.182;8.624;2022-09-06T16:35:30;26.70;97.10
51011;DHT22;37038;50.182;8.624;2022-09-06T16:38:18;26.60;97.40
51011;DHT22;37038;50.182;8.624;2022-09-06T16:41:18;26.60;97.20
51011;DHT22;37038;50.182;8.624;2022-09-06T16:44:10;26.50;97.70
51011;DHT22;37038;50.182;8.624;2022-09-06T16:47:03;26.40;98.10
51011;DHT22;37038;50.182;8.624;2022-09-06T16:49:51;26.30;97.90
51011;DHT22;37038;50.182;8.624;2022-09-06T16:52:39;26.20;97.00
51011;DHT22;37038;50.182;8.624;2022-09-06T16:55:27;26.20;96.20
51011;DHT22;37038;50.182;8.624;2022-09-06T16:58:16;26.10;95.20
51011;DHT22;37038;50.182;8.624;2022-09-06T17:01:04;26.00;96.80
51011;DHT22;37038;50.182;8.624;2022-09-06T17:03:53;25.80;97.50
51011;DHT22;37038;50.182;8.624;2022-09-06T17:06:41;25.70;97.80
51011;DHT22;37038;50.182;8.624;2022-09-06T17:09:31;25.60;99.90
51011;DHT22;37038;50.182;8.624;2022-09-06T17:12:20;25.40;99.90
51011;DHT22;37038;50.182;8.624;2022-09-06T17:15:08;25.10;99.90
51011;DHT22;37038;50.182;8.624;2022-09-06T17:17:56;24.80;99.90
51011;DHT22;37038;50.182;8.624;2022-09-06T17:20:57;24.40;99.90
51011;DHT22;37038;50.182;8.624;2022-09-06T17:23:51;23.90;99.90
51011;DHT22;37038;50.182;8.624;2022-09-06T17:26:39;23.40;99.90
51011;DHT22;37038;50.182;8.624;2022-09-06T17:29:27;23.00;99.90
51011;DHT22;37038;50.182;8.624;2022-09-06T17:32:15;22.70;99.90
51011;DHT22;37038;50.182;8.624;2022-09-06T17:35:03;22.50;99.90
51011;DHT22;37038;50.182;8.624;2022-09-06T17:37:54;22.30;99.90
51011;DHT22;37038;50.182;8.624;2022-09-06T17:40:42;22.20;99.90
51011;DHT22;37038;50.182;8.624;2022-09-06T17:43:30;22.10;99.90
51011;DHT22;37038;50.182;8.624;2022-09-06T17:46:22;21.80;99.90
51011;DHT22;37038;50.182;8.624;2022-09-06T17:49:15;21.50;99.90
51011;DHT22;37038;50.182;8.624;2022-09-06T17:52:05;21.20;99.90
51011;DHT22;37038;50.182;8.624;2022-09-06T17:54:52;20.80;99.90
51011;DHT22;37038;50.182;8.624;2022-09-06T17:57:41;20.50;99.90
51011;DHT22;37038;50.182;8.624;2022-09-06T18:00:29;20.40;99.90
51011;DHT22;37038;50.182;8.624;2022-09-06T18:03:17;20.30;99.90
51011;DHT22;37038;50.182;8.624;2022-09-06T18:06:09;20.30;99.90
51011;DHT22;37038;50.182;8.624;2022-09-06T18:09:08;20.30;99.90
51011;DHT22;37038;50.182;8.624;2022-09-06T18:11:57;20.40;99.90
51011;DHT22;37038;50.182;8.624;2022-09-06T18:14:45;20.40;99.90
51011;DHT22;37038;50.182;8.624;2022-09-06T18:17:33;20.40;99.90
51011;DHT22;37038;50.182;8.624;2022-09-06T18:20:21;20.50;99.90
51011;DHT22;37038;50.182;8.624;2022-09-06T18:23:11;20.50;99.90
51011;DHT22;37038;50.182;8.624;2022-09-06T18:26:05;20.50;99.90
51011;DHT22;37038;50.182;8.624;2022-09-06T18:28:54;20.30;99.90
51011;DHT22;37038;50.182;8.624;2022-09-06T18:31:42;19.80;99.90
51011;DHT22;37038;50.182;8.624;2022-09-06T18:34:30;19.20;99.90
51011;DHT22;37038;50.182;8.624;2022-09-06T18:37:18;18.80;99.90
51011;DHT22;37038;50.182;8.624;2022-09-06T18:40:06;18.60;99.90
51011;DHT22;37038;50.182;8.624;2022-09-06T18:42:57;18.60;99.90
51011;DHT22;37038;50.182;8.624;2022-09-06T18:45:45;18.60;99.90
51011;DHT22;37038;50.182;8.624;2022-09-06T18:48:34;18.50;99.90
51011;DHT22;37038;50.182;8.624;2022-09-06T18:51:23;18.60;99.90
51011;DHT22;37038;50.182;8.624;2022-09-06T18:54:11;18.60;99.90
51011;DHT22;37038;50.182;8.624;2022-09-06T18:56:59;18.50;99.90
51011;DHT22;37038;50.182;8.624;2022-09-06T18:59:47;18.50;99.90
51011;DHT22;37038;50.182;8.624;2022-09-06T19:02:34;18.70;99.90
51011;DHT22;37038;50.182;8.624;2022-09-06T19:05:22;18.70;99.90
51011;DHT22;37038;50.182;8.624;2022-09-06T19:08:10;18.80;99.90
51011;DHT22;37038;50.182;8.624;2022-09-06T19:11:03;18.70;99.90
51011;DHT22;37038;50.182;8.624;2022-09-06T19:13:55;18.70;99.90
51011;DHT22;37038;50.182;8.624;2022-09-06T19:16:44;18.80;99.90
51011;DHT22;37038;50.182;8.624;2022-09-06T19:19:32;18.80;99.90
51011;DHT22;37038;50.182;8.624;2022-09-06T19:22:20;18.80;99.90
51011;DHT22;37038;50.182;8.624;2022-09-06T19:25:09;18.80;99.90